Time;durP1;ratioP1;P1;durP2;ratioP2;P2;SDS_P1;SDS_P2;PMS_P1;PMS_P2;Temp;Humidity;BMP_temperature;BMP_pressure;BME280_temperature;BME280_humidity;BME280_pressure;Samples;Min_cycle;Max_cycle;Signal;HPM_P1;HPM_P2
2022/09/25 00:01:18;;;;;;;28.05;20.20;;;;;;;;;;4997143;28;20046;-80
2022/09/25 00:03:44;;;;;;;32.58;21.30;;;;;;;;;;5015632;28;20558;-79
2022/09/25 00:06:20;;;;;;;36.63;20.70;;;;;;;;;;5016521;28;20049;-79
2022/09/25 00:08:47;;;;;;;35.20;20.02;;;;;;;;;;5015456;28;20062;-76
2022/09/25 00:11:24;;;;;;;33.00;20.35;;;;;;;;;;5015944;28;20064;-77
2022/09/25 00:13:51;;;;;;;34.17;21.15;;;;;;;;;;5014950;28;20054;-77
2022/09/25 00:16:19;;;;;;;30.63;21.15;;;;;;;;;;5015265;28;20057;-78
2022/09/25 00:21:31;;;;;;;;;;;;;;;;;;5016038;28;20046;-79
2022/09/25 00:23:59;;;;;;;;;;;;;;;;;;5015990;28;20297;-77
2022/09/25 00:26:29;;;;;;;31.00;20.73;;;;;;;;;;5015403;28;19992;-79
2022/09/25 00:28:56;;;;;;;32.95;21.30;;;;;;;;;;4997321;28;20510;-76
2022/09/25 00:31:23;;;;;;;28.90;20.05;;;;;;;;;;5015137;28;20136;-79
2022/09/25 00:33:53;;;;;;;32.03;20.15;;;;;;;;;;5014451;28;20045;-77
2022/09/25 00:36:19;;;;;;;29.90;19.58;;;;;;;;;;4999163;28;20533;-79
2022/09/25 00:38:47;;;;;;;32.90;20.02;;;;;;;;;;5016108;28;20494;-77
2022/09/25 00:41:15;;;;;;;29.65;20.00;;;;;;;;;;5015770;28;20053;-78
2022/09/25 00:43:43;;;;;;;36.20;19.77;;;;;;;;;;4996948;28;20050;-79
2022/09/25 00:46:30;;;;;;;31.13;20.08;;;;;;;;;;5014026;28;20054;-79
2022/09/25 00:48:56;;;;;;;32.15;19.38;;;;;;;;;;5012846;28;20205;-79
2022/09/25 00:51:28;;;;;;;27.42;19.42;;;;;;;;;;5008913;28;20057;-79
2022/09/25 00:54:00;;;;;;;27.38;18.73;;;;;;;;;;4994408;28;20220;-78
2022/09/25 00:56:28;;;;;;;27.55;19.23;;;;;;;;;;4994211;28;20052;-77
2022/09/25 00:58:55;;;;;;;30.73;19.35;;;;;;;;;;4979507;28;20082;-77
2022/09/25 01:01:22;;;;;;;30.33;18.85;;;;;;;;;;4974609;28;20115;-78
2022/09/25 01:03:48;;;;;;;28.23;18.40;;;;;;;;;;4962383;28;20043;-77
2022/09/25 01:06:15;;;;;;;24.98;16.85;;;;;;;;;;4995378;28;20035;-79
2022/09/25 01:08:42;;;;;;;25.20;17.00;;;;;;;;;;4992389;28;20158;-78
2022/09/25 01:11:09;;;;;;;25.25;16.70;;;;;;;;;;4975959;28;20153;-78
2022/09/25 01:13:35;;;;;;;26.85;15.95;;;;;;;;;;4974919;28;20081;-79
2022/09/25 01:16:10;;;;;;;24.13;16.15;;;;;;;;;;4975309;28;20042;-78
2022/09/25 01:18:55;;;;;;;22.15;15.70;;;;;;;;;;4972812;28;20055;-78
2022/09/25 01:21:28;;;;;;;25.73;17.38;;;;;;;;;;4975436;28;20162;-78
2022/09/25 01:24:06;;;;;;;28.15;17.38;;;;;;;;;;4974224;28;20118;-79
2022/09/25 01:26:36;;;;;;;29.55;17.95;;;;;;;;;;4986916;28;20426;-78
2022/09/25 01:29:09;;;;;;;27.08;17.73;;;;;;;;;;4983107;28;20487;-76
2022/09/25 01:31:39;;;;;;;26.55;17.40;;;;;;;;;;4957355;28;20146;-77
2022/09/25 01:34:12;;;;;;;27.45;17.40;;;;;;;;;;4975673;28;20062;-79
2022/09/25 01:36:44;;;;;;;25.50;16.85;;;;;;;;;;4990577;28;20108;-79
2022/09/25 01:39:31;;;;;;;27.27;16.30;;;;;;;;;;4987326;28;20051;-77
2022/09/25 01:42:17;;;;;;;25.00;15.85;;;;;;;;;;4986047;28;20134;-77
2022/09/25 01:45:04;;;;;;;25.70;17.15;;;;;;;;;;4973816;28;20058;-79
2022/09/25 01:47:34;;;;;;;26.77;17.35;;;;;;;;;;4973855;28;20145;-77
2022/09/25 01:50:04;;;;;;;30.92;18.02;;;;;;;;;;4972961;28;20051;-79
2022/09/25 01:52:31;;;;;;;31.08;16.58;;;;;;;;;;4974454;28;20061;-79
2022/09/25 01:55:02;;;;;;;25.60;16.38;;;;;;;;;;4974260;28;20057;-78
2022/09/25 01:57:31;;;;;;;28.00;16.35;;;;;;;;;;4957538;28;20043;-78
2022/09/25 02:00:05;;;;;;;21.65;15.48;;;;;;;;;;4990723;28;20054;-79
2022/09/25 02:02:36;;;;;;;23.23;15.90;;;;;;;;;;4991588;28;20077;-77
2022/09/25 02:05:03;;;;;;;25.83;16.50;;;;;;;;;;4991251;28;20050;-78
2022/09/25 02:07:34;;;;;;;29.70;16.38;;;;;;;;;;4991553;28;20043;-78
2022/09/25 02:10:13;;;;;;;27.13;16.45;;;;;;;;;;4989912;28;20046;-78
2022/09/25 02:12:42;;;;;;;23.35;16.30;;;;;;;;;;4990862;28;20042;-78
2022/09/25 02:15:10;;;;;;;24.15;16.15;;;;;;;;;;4991318;28;20491;-77
2022/09/25 02:20:35;;;;;;;24.83;15.70;;;;;;;;;;4990944;28;20046;-78
2022/09/25 02:23:01;;;;;;;26.98;16.30;;;;;;;;;;4973504;28;20046;-78
2022/09/25 02:25:38;;;;;;;22.35;15.77;;;;;;;;;;4991433;28;20050;-78
2022/09/25 02:28:05;;;;;;;25.95;14.63;;;;;;;;;;4990781;28;20137;-77
2022/09/25 02:30:32;;;;;;;24.27;15.20;;;;;;;;;;4988023;28;20046;-76
2022/09/25 02:32:58;;;;;;;25.10;15.38;;;;;;;;;;4989538;28;20210;-78
2022/09/25 02:35:24;;;;;;;21.92;14.85;;;;;;;;;;4990877;28;20050;-80
2022/09/25 02:37:51;;;;;;;22.25;14.80;;;;;;;;;;4991894;28;20069;-79
2022/09/25 02:40:19;;;;;;;26.65;15.68;;;;;;;;;;4990901;28;20050;-79
2022/09/25 02:42:52;;;;;;;26.02;16.73;;;;;;;;;;4991442;28;20068;-79
2022/09/25 02:45:41;;;;;;;23.75;15.65;;;;;;;;;;4992088;28;20069;-78
2022/09/25 02:48:13;;;;;;;29.38;17.02;;;;;;;;;;4992282;28;20054;-78
2022/09/25 02:50:39;;;;;;;27.52;17.25;;;;;;;;;;4993689;28;20050;-79
2022/09/25 02:53:15;;;;;;;23.58;16.65;;;;;;;;;;4992684;28;20058;-78
2022/09/25 02:55:50;;;;;;;29.85;17.80;;;;;;;;;;4992675;28;20050;-79
2022/09/25 02:58:16;;;;;;;25.48;17.25;;;;;;;;;;4983481;28;20047;-79
2022/09/25 03:00:45;;;;;;;26.85;18.67;;;;;;;;;;4973414;28;20061;-79
2022/09/25 03:03:13;;;;;;;25.55;16.98;;;;;;;;;;4971200;28;20114;-79
2022/09/25 03:05:40;;;;;;;26.58;18.05;;;;;;;;;;4973468;28;20054;-79
2022/09/25 03:10:52;;;;;;;29.63;18.85;;;;;;;;;;4973511;28;20050;-78
2022/09/25 03:13:25;;;;;;;28.02;19.08;;;;;;;;;;4954902;28;20050;-79
2022/09/25 03:15:57;;;;;;;27.30;18.73;;;;;;;;;;4972836;28;20080;-80
2022/09/25 03:18:24;;;;;;;29.75;19.23;;;;;;;;;;4989740;28;20054;-79
2022/09/25 03:20:51;;;;;;;30.13;18.65;;;;;;;;;;4992296;28;20046;-79
2022/09/25 03:23:18;;;;;;;26.90;17.70;;;;;;;;;;4991691;28;20152;-79
2022/09/25 03:25:45;;;;;;;29.42;18.67;;;;;;;;;;4996976;28;20046;-78
2022/09/25 03:28:15;;;;;;;28.63;19.02;;;;;;;;;;5002123;28;20302;-79
2022/09/25 03:30:42;;;;;;;27.80;18.23;;;;;;;;;;4994611;28;20077;-79
2022/09/25 03:33:10;;;;;;;26.52;18.45;;;;;;;;;;4989539;28;20121;-80
2022/09/25 03:35:37;;;;;;;29.80;18.80;;;;;;;;;;4991224;28;20051;-79
2022/09/25 03:38:03;;;;;;;30.60;19.38;;;;;;;;;;4973906;28;20050;-79
2022/09/25 03:40:30;;;;;;;28.30;19.25;;;;;;;;;;4990977;28;20110;-79
2022/09/25 03:42:58;;;;;;;30.85;17.98;;;;;;;;;;4990803;28;20093;-80
2022/09/25 03:45:24;;;;;;;28.98;18.00;;;;;;;;;;4996193;28;20046;-78
2022/09/25 03:47:50;;;;;;;28.13;17.85;;;;;;;;;;5004470;28;20054;-77
2022/09/25 03:50:17;;;;;;;27.27;17.77;;;;;;;;;;5006203;28;20055;-79
2022/09/25 03:52:43;;;;;;;29.10;17.63;;;;;;;;;;4991167;28;20267;-79
2022/09/25 03:55:10;;;;;;;26.23;17.00;;;;;;;;;;4991063;28;20064;-79
2022/09/25 03:57:38;;;;;;;26.92;17.17;;;;;;;;;;4991371;28;20061;-79
2022/09/25 04:00:05;;;;;;;25.85;16.98;;;;;;;;;;4989792;28;20096;-79
2022/09/25 04:02:31;;;;;;;25.52;16.55;;;;;;;;;;4990344;28;20126;-79
2022/09/25 04:04:59;;;;;;;25.55;17.20;;;;;;;;;;4989995;28;20058;-79
2022/09/25 04:07:25;;;;;;;24.13;16.60;;;;;;;;;;4991296;28;20070;-80
2022/09/25 04:09:52;;;;;;;25.15;17.02;;;;;;;;;;4989355;28;20058;-79
2022/09/25 04:12:19;;;;;;;22.77;15.35;;;;;;;;;;4990580;28;20506;-79
2022/09/25 04:14:46;;;;;;;23.52;15.30;;;;;;;;;;4991083;28;20062;-79
2022/09/25 04:17:12;;;;;;;25.80;16.02;;;;;;;;;;4991337;28;20042;-79
2022/09/25 04:19:39;;;;;;;24.55;15.85;;;;;;;;;;4990815;28;20046;-80
2022/09/25 04:22:05;;;;;;;24.45;15.35;;;;;;;;;;4992351;28;20068;-80
2022/09/25 04:24:47;;;;;;;22.88;15.50;;;;;;;;;;4999828;28;20559;-80
2022/09/25 04:27:19;;;;;;;21.58;14.52;;;;;;;;;;5010795;28;20046;-80
2022/09/25 04:29:46;;;;;;;28.88;15.75;;;;;;;;;;5003821;28;20054;-78
2022/09/25 04:35:00;;;;;;;28.08;15.32;;;;;;;;;;4994794;28;20286;-78
2022/09/25 04:37:27;;;;;;;24.77;14.75;;;;;;;;;;4994822;28;20084;-79
2022/09/25 04:39:57;;;;;;;21.88;14.38;;;;;;;;;;4993200;28;20052;-79
2022/09/25 04:42:24;;;;;;;21.00;14.23;;;;;;;;;;4993213;28;20042;-79
2022/09/25 04:44:51;;;;;;;23.17;15.52;;;;;;;;;;4994799;28;20043;-78
2022/09/25 04:47:18;;;;;;;21.67;13.95;;;;;;;;;;4993847;28;20046;-78
2022/09/25 04:49:45;;;;;;;19.65;14.23;;;;;;;;;;4992985;28;20050;-79
2022/09/25 04:52:12;;;;;;;18.27;13.00;;;;;;;;;;4994613;28;20054;-79
2022/09/25 04:54:38;;;;;;;19.83;13.68;;;;;;;;;;4993418;28;20058;-79
2022/09/25 04:57:05;;;;;;;27.58;16.38;;;;;;;;;;4993864;28;20060;-79
2022/09/25 04:59:31;;;;;;;27.15;15.93;;;;;;;;;;4992577;28;20050;-79
2022/09/25 05:01:57;;;;;;;25.63;15.70;;;;;;;;;;4994189;28;20235;-80
2022/09/25 05:04:24;;;;;;;23.65;15.00;;;;;;;;;;4993087;28;20367;-79
2022/09/25 05:06:50;;;;;;;25.75;15.48;;;;;;;;;;4994824;28;20054;-80
2022/09/25 05:09:17;;;;;;;22.83;14.32;;;;;;;;;;4993023;28;20046;-80
2022/09/25 05:11:44;;;;;;;25.35;15.85;;;;;;;;;;4994220;28;20065;-80
2022/09/25 05:14:11;;;;;;;23.00;15.05;;;;;;;;;;4977451;28;20058;-80
2022/09/25 05:16:37;;;;;;;24.70;14.48;;;;;;;;;;4993766;28;20046;-80
2022/09/25 05:19:04;;;;;;;21.23;14.88;;;;;;;;;;4993743;28;20113;-79
2022/09/25 05:21:31;;;;;;;24.35;15.38;;;;;;;;;;4977551;28;20596;-79
2022/09/25 05:23:58;;;;;;;20.52;13.95;;;;;;;;;;4993630;28;20046;-80
2022/09/25 05:26:25;;;;;;;24.95;15.93;;;;;;;;;;4979523;28;20061;-79
2022/09/25 05:28:51;;;;;;;25.88;15.00;;;;;;;;;;4995327;28;20054;-80
2022/09/25 05:31:18;;;;;;;24.77;16.02;;;;;;;;;;4990747;28;20061;-80
2022/09/25 05:33:44;;;;;;;18.67;13.70;;;;;;;;;;4989236;28;20056;-80
2022/09/25 05:36:11;;;;;;;19.08;13.50;;;;;;;;;;4975906;28;20061;-79
2022/09/25 05:38:38;;;;;;;23.92;14.95;;;;;;;;;;4990971;28;20057;-79
2022/09/25 05:41:06;;;;;;;20.33;14.00;;;;;;;;;;4992879;28;20048;-80
2022/09/25 05:43:33;;;;;;;19.50;14.40;;;;;;;;;;4992636;28;20042;-79
2022/09/25 05:45:59;;;;;;;22.75;14.48;;;;;;;;;;4996426;28;20073;-79
2022/09/25 05:48:26;;;;;;;24.02;13.85;;;;;;;;;;4975147;28;20510;-78
2022/09/25 05:50:56;;;;;;;22.80;14.73;;;;;;;;;;4976202;28;20137;-80
2022/09/25 05:53:23;;;;;;;21.98;15.10;;;;;;;;;;4993224;28;20058;-78
2022/09/25 05:55:49;;;;;;;22.85;13.82;;;;;;;;;;4975645;28;20424;-79
2022/09/25 05:58:16;;;;;;;23.38;15.20;;;;;;;;;;4991357;28;20490;-80
2022/09/25 06:00:42;;;;;;;23.50;15.40;;;;;;;;;;4992626;28;20052;-80
2022/09/25 06:03:09;;;;;;;26.85;14.98;;;;;;;;;;4991527;28;20074;-81
2022/09/25 06:05:37;;;;;;;23.23;15.20;;;;;;;;;;4992775;28;20487;-80
2022/09/25 06:08:03;;;;;;;29.15;16.25;;;;;;;;;;4976222;28;20061;-79
2022/09/25 06:10:29;;;;;;;21.98;15.77;;;;;;;;;;5009393;28;20054;-77
2022/09/25 06:12:57;;;;;;;22.50;14.75;;;;;;;;;;4997175;28;20059;-79
2022/09/25 06:15:28;;;;;;;22.23;14.38;;;;;;;;;;4993809;28;20057;-80
2022/09/25 06:17:55;;;;;;;19.63;13.25;;;;;;;;;;4997102;28;20118;-80
2022/09/25 06:20:21;;;;;;;19.85;13.68;;;;;;;;;;4998611;28;20077;-79
2022/09/25 06:22:54;;;;;;;18.40;13.18;;;;;;;;;;4993436;28;20407;-78
2022/09/25 06:25:22;;;;;;;22.58;13.43;;;;;;;;;;4993118;28;20054;-80
2022/09/25 06:27:55;;;;;;;24.38;14.45;;;;;;;;;;4992976;28;20206;-82
2022/09/25 06:30:22;;;;;;;18.77;13.75;;;;;;;;;;4975805;28;20058;-81
2022/09/25 06:32:55;;;;;;;19.45;12.77;;;;;;;;;;4992304;28;20054;-79
2022/09/25 06:35:22;;;;;;;21.73;12.43;;;;;;;;;;4992305;28;20046;-79
2022/09/25 06:37:48;;;;;;;21.05;12.52;;;;;;;;;;4993006;28;20042;-80
2022/09/25 06:40:15;;;;;;;19.08;12.52;;;;;;;;;;4991018;28;20051;-81
2022/09/25 06:42:41;;;;;;;17.98;12.40;;;;;;;;;;4991383;28;20469;-76
2022/09/25 06:45:10;;;;;;;21.25;12.38;;;;;;;;;;4991875;28;20100;-80
2022/09/25 06:47:36;;;;;;;19.15;12.15;;;;;;;;;;4991718;28;20065;-81
2022/09/25 06:50:03;;;;;;;17.02;12.23;;;;;;;;;;4990893;28;20050;-81
2022/09/25 06:52:29;;;;;;;18.00;11.50;;;;;;;;;;4991942;28;20050;-80
2022/09/25 06:54:56;;;;;;;18.33;10.90;;;;;;;;;;4991721;28;20050;-80
2022/09/25 06:57:22;;;;;;;16.65;12.10;;;;;;;;;;4992338;28;20050;-81
2022/09/25 06:59:49;;;;;;;18.73;12.32;;;;;;;;;;4990708;28;20612;-82
2022/09/25 07:05:00;;;;;;;19.80;12.70;;;;;;;;;;4992330;28;20046;-79
2022/09/25 07:07:27;;;;;;;20.23;13.38;;;;;;;;;;4992186;28;20046;-79
2022/09/25 07:09:53;;;;;;;21.48;14.07;;;;;;;;;;4989778;28;20050;-78
2022/09/25 07:12:20;;;;;;;19.17;13.35;;;;;;;;;;4992673;28;20053;-79
2022/09/25 07:14:47;;;;;;;19.33;14.65;;;;;;;;;;4993083;28;20056;-79
2022/09/25 07:17:13;;;;;;;24.75;15.18;;;;;;;;;;4991842;28;20043;-81
2022/09/25 07:19:39;;;;;;;21.77;15.18;;;;;;;;;;4990064;28;20522;-80
2022/09/25 07:22:06;;;;;;;25.00;17.02;;;;;;;;;;4992232;28;20049;-81
2022/09/25 07:24:32;;;;;;;24.48;17.23;;;;;;;;;;4991127;28;20054;-81
2022/09/25 07:26:58;;;;;;;26.30;17.95;;;;;;;;;;4991688;28;20056;-83
2022/09/25 07:29:25;;;;;;;29.67;17.80;;;;;;;;;;4991392;28;20051;-80
2022/09/25 07:31:51;;;;;;;24.65;16.88;;;;;;;;;;4992412;28;20054;-80
2022/09/25 07:34:17;;;;;;;24.27;16.85;;;;;;;;;;5003818;28;20053;-81
2022/09/25 07:36:45;;;;;;;24.85;17.75;;;;;;;;;;5011413;28;20065;-81
2022/09/25 07:39:11;;;;;;;27.02;18.50;;;;;;;;;;5010544;28;20054;-81
2022/09/25 07:41:43;;;;;;;28.27;18.13;;;;;;;;;;5010452;28;20100;-81
2022/09/25 07:44:12;;;;;;;25.83;18.05;;;;;;;;;;5011917;28;20046;-80
2022/09/25 07:47:00;;;;;;;27.77;18.65;;;;;;;;;;5032417;28;20056;-81
2022/09/25 07:49:27;;;;;;;28.55;18.63;;;;;;;;;;5029760;28;20101;-81
2022/09/25 07:51:54;;;;;;;25.23;17.02;;;;;;;;;;5014185;28;20060;-79
2022/09/25 07:54:20;;;;;;;24.27;17.13;;;;;;;;;;5010238;28;20050;-80
2022/09/25 07:56:46;;;;;;;27.38;18.23;;;;;;;;;;5010568;28;20058;-80
2022/09/25 07:59:13;;;;;;;24.40;16.45;;;;;;;;;;4985445;28;20438;-80
2022/09/25 08:01:39;;;;;;;24.80;15.50;;;;;;;;;;4971955;28;20542;-80
2022/09/25 08:04:11;;;;;;;23.00;16.13;;;;;;;;;;4973281;28;20051;-81
2022/09/25 08:06:40;;;;;;;23.17;15.05;;;;;;;;;;4976312;28;20369;-76
2022/09/25 08:09:06;;;;;;;25.38;15.27;;;;;;;;;;4980246;28;20480;-76
2022/09/25 08:11:36;;;;;;;24.15;16.63;;;;;;;;;;4977768;28;20046;-76
2022/09/25 08:14:02;;;;;;;22.40;15.27;;;;;;;;;;4974327;28;20061;-79
2022/09/25 08:16:28;;;;;;;27.10;16.27;;;;;;;;;;4973608;28;20046;-79
2022/09/25 08:18:55;;;;;;;23.08;16.13;;;;;;;;;;4974317;28;20492;-80
2022/09/25 08:21:21;;;;;;;22.85;15.50;;;;;;;;;;4978674;28;20043;-78
2022/09/25 08:23:49;;;;;;;26.35;15.73;;;;;;;;;;4975157;28;20073;-80
2022/09/25 08:26:16;;;;;;;24.13;16.05;;;;;;;;;;4993689;28;20046;-80
2022/09/25 08:28:43;;;;;;;25.45;16.13;;;;;;;;;;4991640;28;20480;-79
2022/09/25 08:31:09;;;;;;;24.63;16.48;;;;;;;;;;4993674;28;20056;-79
2022/09/25 08:33:36;;;;;;;24.67;17.85;;;;;;;;;;4993472;28;20133;-78
2022/09/25 08:36:03;;;;;;;27.30;16.98;;;;;;;;;;4994389;28;20070;-79
2022/09/25 08:38:33;;;;;;;27.60;16.73;;;;;;;;;;4991167;28;20112;-79
2022/09/25 08:41:06;;;;;;;23.70;16.85;;;;;;;;;;4993604;28;20073;-78
2022/09/25 08:43:35;;;;;;;26.30;17.02;;;;;;;;;;4993332;28;20078;-79
2022/09/25 08:49:01;;;;;;;28.85;18.50;;;;;;;;;;5004308;28;20113;-79
2022/09/25 08:51:28;;;;;;;31.23;18.75;;;;;;;;;;4975455;28;20402;-79
2022/09/25 08:53:55;;;;;;;24.52;17.33;;;;;;;;;;4991808;28;20034;-79
2022/09/25 08:56:23;;;;;;;23.63;16.88;;;;;;;;;;4990317;28;20058;-78
2022/09/25 08:58:53;;;;;;;23.55;16.80;;;;;;;;;;4990635;28;20073;-79
2022/09/25 09:01:27;;;;;;;24.98;17.48;;;;;;;;;;4993081;28;20061;-79
2022/09/25 09:03:54;;;;;;;24.83;17.15;;;;;;;;;;4992454;28;20050;-78
2022/09/25 09:06:21;;;;;;;27.90;16.35;;;;;;;;;;4991571;28;20163;-78
2022/09/25 09:08:52;;;;;;;28.42;16.50;;;;;;;;;;4991747;28;20491;-80
2022/09/25 09:11:31;;;;;;;26.40;17.25;;;;;;;;;;4992548;28;20061;-78
2022/09/25 09:14:01;;;;;;;23.25;15.38;;;;;;;;;;4993211;28;20056;-79
2022/09/25 09:16:34;;;;;;;22.85;16.33;;;;;;;;;;4995406;28;20176;-80
2022/09/25 09:19:03;;;;;;;26.70;16.20;;;;;;;;;;4993087;28;20065;-79
2022/09/25 09:21:34;;;;;;;26.48;14.95;;;;;;;;;;4995062;28;20414;-80
2022/09/25 09:24:02;;;;;;;24.90;15.43;;;;;;;;;;4994151;28;20066;-79
2022/09/25 09:26:48;;;;;;;22.63;15.98;;;;;;;;;;4994791;28;20042;-80
2022/09/25 09:29:18;;;;;;;23.52;15.82;;;;;;;;;;4993750;28;20455;-80
2022/09/25 09:34:27;;;;;;;22.45;15.90;;;;;;;;;;1494336;23;20045;-79
2022/09/25 09:37:30;;;;;;;23.60;15.50;;;;;;;;;;5030111;28;20049;-80
2022/09/25 09:40:15;;;;;;;20.92;14.73;;;;;;;;;;5032313;28;20130;-80
2022/09/25 09:43:05;;;;;;;20.05;13.82;;;;;;;;;;5032910;28;20177;-80
2022/09/25 09:45:38;;;;;;;20.73;14.05;;;;;;;;;;5003886;28;20061;-79
2022/09/25 09:48:21;;;;;;;22.08;14.38;;;;;;;;;;5031867;28;20064;-78
2022/09/25 09:51:14;;;;;;;25.15;14.95;;;;;;;;;;5015311;28;20547;-79
2022/09/25 09:53:46;;;;;;;21.48;14.13;;;;;;;;;;5013994;28;20055;-79
2022/09/25 09:56:34;;;;;;;25.17;13.98;;;;;;;;;;5042643;28;20132;-79
2022/09/25 09:59:05;;;;;;;18.08;12.68;;;;;;;;;;5022886;28;20059;-78
2022/09/25 10:01:36;;;;;;;19.85;12.95;;;;;;;;;;5043517;28;20055;-79
2022/09/25 10:04:07;;;;;;;22.88;12.52;;;;;;;;;;5036956;28;20056;-78
2022/09/25 10:06:36;;;;;;;18.63;12.40;;;;;;;;;;5034600;28;20390;-79
2022/09/25 10:09:03;;;;;;;18.83;13.02;;;;;;;;;;5034000;28;20053;-79
2022/09/25 10:11:30;;;;;;;17.25;12.77;;;;;;;;;;5035420;28;20147;-79
2022/09/25 10:14:00;;;;;;;19.50;13.48;;;;;;;;;;5013652;28;20088;-79
2022/09/25 10:16:27;;;;;;;21.40;12.70;;;;;;;;;;5032983;28;20064;-79
2022/09/25 10:18:59;;;;;;;17.92;12.00;;;;;;;;;;5031142;28;20104;-79
2022/09/25 10:21:36;;;;;;;18.75;11.68;;;;;;;;;;5015129;28;20517;-78
2022/09/25 10:24:02;;;;;;;15.43;11.27;;;;;;;;;;5031970;28;20046;-79
2022/09/25 10:26:30;;;;;;;17.33;10.60;;;;;;;;;;5018671;28;20050;-78
2022/09/25 10:28:58;;;;;;;13.70;10.02;;;;;;;;;;5052534;28;20125;-79
2022/09/25 10:31:26;;;;;;;14.63;9.80;;;;;;;;;;5050781;28;20043;-78
2022/09/25 10:33:59;;;;;;;13.00;9.38;;;;;;;;;;5012879;28;20060;-78
2022/09/25 10:36:50;;;;;;;12.25;8.90;;;;;;;;;;5030928;28;20053;-78
2022/09/25 10:39:25;;;;;;;11.10;8.82;;;;;;;;;;5022967;28;20049;-79
2022/09/25 10:42:48;;;;;;;13.02;8.85;;;;;;;;;;5018074;28;20052;-79
2022/09/25 10:45:21;;;;;;;10.70;9.07;;;;;;;;;;4951115;29;20043;-81
2022/09/25 10:50:35;;;;;;;13.82;8.50;;;;;;;;;;5005615;28;20175;-80
2022/09/25 10:53:04;;;;;;;11.63;8.70;;;;;;;;;;5033211;28;20062;-80
2022/09/25 10:55:33;;;;;;;12.35;8.93;;;;;;;;;;5033148;28;20084;-78
2022/09/25 10:58:08;;;;;;;13.85;8.60;;;;;;;;;;5037229;28;20046;-80
2022/09/25 11:00:41;;;;;;;13.65;9.73;;;;;;;;;;5039846;28;20048;-79
2022/09/25 11:03:13;;;;;;;12.50;8.68;;;;;;;;;;5035913;28;20053;-77
2022/09/25 11:05:48;;;;;;;11.07;8.35;;;;;;;;;;5017107;28;20101;-79
2022/09/25 11:08:15;;;;;;;11.20;8.48;;;;;;;;;;5036506;28;20377;-79
2022/09/25 11:10:51;;;;;;;10.60;7.43;;;;;;;;;;5036757;28;20113;-80
2022/09/25 11:13:27;;;;;;;14.00;8.10;;;;;;;;;;5031604;28;20140;-79
2022/09/25 11:16:00;;;;;;;14.27;8.82;;;;;;;;;;5030367;28;20140;-79
2022/09/25 11:18:38;;;;;;;14.82;8.90;;;;;;;;;;5029637;28;20061;-78
2022/09/25 11:21:05;;;;;;;12.93;9.07;;;;;;;;;;5030697;28;20045;-79
2022/09/25 11:23:40;;;;;;;11.00;8.32;;;;;;;;;;5028928;28;20490;-77
2022/09/25 11:26:14;;;;;;;12.15;8.63;;;;;;;;;;5029807;28;20357;-79
2022/09/25 11:29:01;;;;;;;14.60;8.85;;;;;;;;;;5031030;28;20053;-78
2022/09/25 11:31:34;;;;;;;11.60;8.50;;;;;;;;;;5028240;28;20372;-78
2022/09/25 11:34:19;;;;;;;13.43;8.10;;;;;;;;;;5028206;28;20053;-77
2022/09/25 11:36:48;;;;;;;10.15;7.60;;;;;;;;;;5011605;28;20057;-78
2022/09/25 11:42:24;;;;;;;10.60;7.72;;;;;;;;;;5032334;28;20508;-78
2022/09/25 11:44:58;;;;;;;13.18;7.68;;;;;;;;;;5032396;28;20061;-79
2022/09/25 11:47:35;;;;;;;12.25;7.45;;;;;;;;;;5032545;28;20412;-79
2022/09/25 11:50:02;;;;;;;11.50;7.35;;;;;;;;;;5019568;28;20049;-78
2022/09/25 11:52:31;;;;;;;8.75;6.97;;;;;;;;;;5033584;28;20054;-78
2022/09/25 11:55:16;;;;;;;11.40;7.07;;;;;;;;;;5033224;28;20444;-81
2022/09/25 11:58:14;;;;;;;11.57;7.53;;;;;;;;;;5033471;28;20049;-79
2022/09/25 12:00:41;;;;;;;9.52;7.22;;;;;;;;;;4982205;28;20049;-79
2022/09/25 12:03:10;;;;;;;8.27;6.50;;;;;;;;;;5030743;28;20053;-78
2022/09/25 12:05:44;;;;;;;8.75;6.45;;;;;;;;;;5033290;28;20547;-79
2022/09/25 12:08:29;;;;;;;9.50;6.97;;;;;;;;;;5033346;28;20079;-77
2022/09/25 12:10:55;;;;;;;9.73;6.70;;;;;;;;;;5032589;28;20048;-78
2022/09/25 12:13:40;;;;;;;7.18;6.00;;;;;;;;;;5035497;28;20060;-78
2022/09/25 12:16:24;;;;;;;10.30;6.30;;;;;;;;;;5033187;28;20560;-77
2022/09/25 12:19:00;;;;;;;11.70;7.30;;;;;;;;;;5030172;28;20112;-80
2022/09/25 12:21:30;;;;;;;;;;;;;;;;;;5025530;28;20065;-77
2022/09/25 12:24:04;;;;;;;10.45;6.88;;;;;;;;;;5024161;28;19924;-78
2022/09/25 12:26:50;;;;;;;8.85;6.72;;;;;;;;;;5024417;28;20049;-78
2022/09/25 12:29:35;;;;;;;10.57;7.43;;;;;;;;;;5019114;28;20128;-78
2022/09/25 12:32:08;;;;;;;10.98;6.35;;;;;;;;;;5004679;28;20497;-78
2022/09/25 12:34:54;;;;;;;11.10;6.50;;;;;;;;;;4963452;28;1604663;-79
2022/09/25 12:37:23;;;;;;;8.68;6.53;;;;;;;;;;5019325;28;20048;-79
2022/09/25 12:40:02;;;;;;;8.40;6.47;;;;;;;;;;5013369;28;20045;-78
2022/09/25 12:42:28;;;;;;;;;;;;;;;;;;5001730;28;20512;-77
2022/09/25 12:44:57;;;;;;;10.85;6.30;;;;;;;;;;5020633;28;19929;-78
2022/09/25 12:47:23;;;;;;;10.75;6.28;;;;;;;;;;5033543;28;20303;-79
2022/09/25 12:50:06;;;;;;;9.10;5.63;;;;;;;;;;5019104;28;20065;-78
2022/09/25 12:52:51;;;;;;;10.57;6.13;;;;;;;;;;5004753;28;20285;-79
2022/09/25 12:55:25;;;;;;;8.98;6.13;;;;;;;;;;5018973;28;20514;-80
2022/09/25 12:57:54;;;;;;;8.25;5.55;;;;;;;;;;5006909;28;20045;-78
2022/09/25 13:00:22;;;;;;;7.97;5.45;;;;;;;;;;5032040;28;20041;-80
2022/09/25 13:02:57;;;;;;;9.85;5.47;;;;;;;;;;5033201;28;20052;-79
2022/09/25 13:05:31;;;;;;;7.15;5.70;;;;;;;;;;5032540;28;20127;-79
2022/09/25 13:08:00;;;;;;;6.07;4.82;;;;;;;;;;5034173;28;20129;-79
2022/09/25 13:10:26;;;;;;;6.93;5.15;;;;;;;;;;5032774;28;20057;-79
2022/09/25 13:12:54;;;;;;;9.25;5.30;;;;;;;;;;5031937;28;20140;-79
2022/09/25 13:15:22;;;;;;;6.30;5.55;;;;;;;;;;5013312;28;20046;-77
2022/09/25 13:17:49;;;;;;;5.85;4.85;;;;;;;;;;5002820;28;20042;-76
2022/09/25 13:20:27;;;;;;;10.65;5.55;;;;;;;;;;5025465;28;20457;-78
2022/09/25 13:23:13;;;;;;;10.63;5.82;;;;;;;;;;5032363;28;20564;-78
2022/09/25 13:25:41;;;;;;;8.52;5.82;;;;;;;;;;5038055;28;20042;-78
2022/09/25 13:28:13;;;;;;;11.95;5.80;;;;;;;;;;5032105;28;20060;-78
2022/09/25 13:30:55;;;;;;;12.55;6.18;;;;;;;;;;5014766;28;20052;-77
2022/09/25 13:33:22;;;;;;;10.43;6.85;;;;;;;;;;5033122;28;20053;-77
2022/09/25 13:36:00;;;;;;;11.25;6.65;;;;;;;;;;5014787;28;20045;-78
2022/09/25 13:41:13;;;;;;;13.00;6.77;;;;;;;;;;5033124;28;20046;-78
2022/09/25 13:43:43;;;;;;;11.57;6.40;;;;;;;;;;5046723;28;20290;-78
2022/09/25 13:46:16;;;;;;;9.35;6.75;;;;;;;;;;5054596;28;20053;-77
2022/09/25 13:48:43;;;;;;;10.73;7.03;;;;;;;;;;5028224;28;20080;-78
2022/09/25 13:51:18;;;;;;;9.32;6.65;;;;;;;;;;5031640;28;20052;-78
2022/09/25 13:54:03;;;;;;;9.60;6.40;;;;;;;;;;5031292;28;20053;-80
2022/09/25 13:56:32;;;;;;;11.10;6.57;;;;;;;;;;5022803;28;20053;-79
2022/09/25 13:58:59;;;;;;;9.75;6.70;;;;;;;;;;5023769;28;20700;-78
2022/09/25 14:01:32;;;;;;;9.38;6.32;;;;;;;;;;5022975;28;20037;-79
2022/09/25 14:03:58;;;;;;;9.38;6.55;;;;;;;;;;5019481;28;20417;-80
2022/09/25 14:06:28;;;;;;;14.45;6.40;;;;;;;;;;5021468;28;20058;-79
2022/09/25 14:08:58;;;;;;;10.48;6.07;;;;;;;;;;5020951;28;20058;-80
2022/09/25 14:11:30;;;;;;;14.43;7.10;;;;;;;;;;5019659;28;20046;-79
2022/09/25 14:13:58;;;;;;;10.10;6.97;;;;;;;;;;5020333;28;20132;-79
2022/09/25 14:16:33;;;;;;;9.00;6.38;;;;;;;;;;5005305;28;20513;-79
2022/09/25 14:19:02;;;;;;;13.53;7.87;;;;;;;;;;5021436;28;20048;-78
2022/09/25 14:21:29;;;;;;;14.38;7.93;;;;;;;;;;5020898;28;20088;-79
2022/09/25 14:23:56;;;;;;;11.75;7.60;;;;;;;;;;5020763;28;20045;-79
2022/09/25 14:26:24;;;;;;;12.80;8.23;;;;;;;;;;5021898;28;20045;-79
2022/09/25 14:28:51;;;;;;;14.15;8.23;;;;;;;;;;5017730;28;20152;-79
2022/09/25 14:31:36;;;;;;;14.95;7.10;;;;;;;;;;5019657;28;20058;-79
2022/09/25 14:34:05;;;;;;;11.95;6.28;;;;;;;;;;4993154;28;20053;-80
2022/09/25 14:36:52;;;;;;;12.43;6.90;;;;;;;;;;5012732;28;20064;-79
2022/09/25 14:39:28;;;;;;;9.65;6.00;;;;;;;;;;5012400;28;20084;-81
2022/09/25 14:42:05;;;;;;;10.35;6.03;;;;;;;;;;5009079;28;20042;-78
2022/09/25 14:44:50;;;;;;;8.35;5.10;;;;;;;;;;4993089;28;20050;-80
2022/09/25 14:47:17;;;;;;;8.27;5.40;;;;;;;;;;5013185;28;20046;-80
2022/09/25 14:49:45;;;;;;;7.32;3.65;;;;;;;;;;5018652;28;20600;-77
2022/09/25 14:52:13;;;;;;;4.70;2.30;;;;;;;;;;5025109;28;20085;-79
2022/09/25 14:54:42;;;;;;;7.05;2.58;;;;;;;;;;5011387;28;20442;-81
2022/09/25 14:57:09;;;;;;;4.65;2.35;;;;;;;;;;4996460;28;20068;-79
2022/09/25 14:59:59;;;;;;;3.60;2.20;;;;;;;;;;5031147;28;20045;-79
2022/09/25 15:02:26;;;;;;;5.38;2.60;;;;;;;;;;5019773;28;20049;-79
2022/09/25 15:04:56;;;;;;;6.50;2.40;;;;;;;;;;5009279;28;20076;-81
2022/09/25 15:07:23;;;;;;;5.88;2.40;;;;;;;;;;5030617;28;20061;-80
2022/09/25 15:09:54;;;;;;;4.50;2.30;;;;;;;;;;5007341;28;20513;-79
2022/09/25 15:12:24;;;;;;;3.78;2.25;;;;;;;;;;5031712;28;20049;-79